LFMT

Montpellier

Airport
ICAO code
LFMT
Summary
ICAO Region
EUR
ICAO Territory
Location

Maugio, Languedoc-Roussillon,

Coordinates
43° 34' 48" N , 3° 58' 2" E
KCC
Airport BS
Bird Strike
Airport WX
Low Level Turbulence
Metar
LFMT 191930Z AUTO 18006KT 130V210 9999 ///TCU 22/20 Q1015 BECMG BKN011

Description

Montpellier - Méditerranée Airport, also known as Fréjorgues Airport, is an airport in southern France. It is located 7 km east-southeast of Montpellier in Mauguio.

Climatology

Dry-summer subtropical ”Mediterranean" climate (Köppen climate classification Csa) - characterized by hot, dry summers and mild winters. During the summer, subtropical high pressure cells dominate, making rainfall unlikely except for the occasional thunderstorm. In the winter, periodic storms bring rain (snow at higher elevations).

Runways

Designator Length Width Surface Rops
13R/31L 1100 30 ASP Yes/Yes
13L/31R 2600 50 ASP Yes/Yes

Airport map

Aerial View

SKYbrary Partners:

Safety knowledge contributed by: